createdAt,value
2018-10-12T00:01:00.871Z,99.70
2018-10-12T00:03:29.478Z,99.90
2018-10-12T00:05:57.872Z,99.90
2018-10-12T00:08:26.869Z,99.90
2018-10-12T00:10:55.423Z,99.90
2018-10-12T00:13:24.251Z,99.90
2018-10-12T00:15:52.747Z,99.90
2018-10-12T00:18:21.478Z,99.90
2018-10-12T00:20:49.814Z,99.90
2018-10-12T00:23:18.109Z,99.60
2018-10-12T00:25:46.654Z,99.90
2018-10-12T00:28:16.159Z,99.90
2018-10-12T00:30:44.545Z,99.90
2018-10-12T00:33:12.970Z,99.90
2018-10-12T00:35:41.944Z,99.90
2018-10-12T00:38:10.365Z,99.90
2018-10-12T00:40:39.485Z,99.90
2018-10-12T00:43:07.778Z,99.90
2018-10-12T00:45:36.111Z,99.90
2018-10-12T00:48:04.438Z,99.90
2018-10-12T00:50:34.235Z,99.90
2018-10-12T00:53:02.613Z,99.90
2018-10-12T00:55:33.005Z,99.90
2018-10-12T00:58:01.305Z,99.90
2018-10-12T01:00:29.659Z,99.90
2018-10-12T01:02:58.761Z,99.90
2018-10-12T01:05:27.075Z,99.90
2018-10-12T01:07:56.011Z,99.90
2018-10-12T01:10:24.996Z,99.90
2018-10-12T01:12:53.291Z,99.90
2018-10-12T01:15:21.902Z,99.90
2018-10-12T01:17:51.072Z,99.90
2018-10-12T01:20:19.453Z,99.90
2018-10-12T01:22:47.796Z,99.90
2018-10-12T01:25:16.148Z,99.90
2018-10-12T01:27:45.219Z,99.90
2018-10-12T01:30:13.510Z,99.90
2018-10-12T01:32:47.064Z,99.90
2018-10-12T01:35:15.906Z,99.90
2018-10-12T01:37:44.259Z,99.90
2018-10-12T01:40:13.226Z,99.90
2018-10-12T01:42:41.608Z,99.90
2018-10-12T01:45:09.954Z,99.90
2018-10-12T01:47:38.288Z,99.90
2018-10-12T01:50:06.674Z,99.90
2018-10-12T01:52:35.346Z,99.90
2018-10-12T01:55:03.721Z,99.90
2018-10-12T01:57:32.112Z,99.90
2018-10-12T02:00:00.431Z,99.90
2018-10-12T02:02:29.045Z,99.90
2018-10-12T02:04:57.338Z,99.90
2018-10-12T02:07:26.810Z,99.90
2018-10-12T02:09:55.162Z,99.90
2018-10-12T02:14:56.333Z,99.90
2018-10-12T02:17:24.993Z,99.90
2018-10-12T02:19:53.618Z,99.90
2018-10-12T02:22:21.978Z,99.90
2018-10-12T02:24:50.361Z,99.90
2018-10-12T02:27:18.746Z,99.90
2018-10-12T02:29:47.025Z,99.90
2018-10-12T02:32:15.354Z,99.90
2018-10-12T02:34:44.558Z,99.90
2018-10-12T02:37:12.966Z,99.90
2018-10-12T02:39:41.321Z,99.90
2018-10-12T02:42:09.635Z,99.90
2018-10-12T02:44:37.937Z,99.90
2018-10-12T02:47:06.301Z,99.90
2018-10-12T02:49:34.605Z,99.90
2018-10-12T02:52:02.938Z,99.90
2018-10-12T02:54:31.322Z,99.90
2018-10-12T02:57:00.340Z,99.90
2018-10-12T02:59:28.756Z,99.90
2018-10-12T03:01:57.590Z,99.90
2018-10-12T03:04:26.272Z,99.90
2018-10-12T03:06:54.588Z,99.90
2018-10-12T03:09:23.675Z,99.90
2018-10-12T03:11:51.952Z,99.90
2018-10-12T03:14:21.218Z,99.90
2018-10-12T03:16:50.140Z,99.90
2018-10-12T03:19:19.037Z,99.90
2018-10-12T03:21:47.351Z,99.90
2018-10-12T03:24:15.658Z,99.90
2018-10-12T03:26:44.031Z,99.90
2018-10-12T03:29:12.324Z,99.90
2018-10-12T03:31:41.253Z,99.90
2018-10-12T03:34:09.647Z,99.90
2018-10-12T03:36:38.827Z,99.90
2018-10-12T03:39:07.570Z,99.90
2018-10-12T03:41:36.039Z,99.90
2018-10-12T03:44:04.583Z,99.90
2018-10-12T03:46:32.860Z,99.90
2018-10-12T03:49:01.212Z,99.90
2018-10-12T03:51:29.524Z,99.90
2018-10-12T03:53:58.737Z,99.90
2018-10-12T03:56:27.062Z,99.90
2018-10-12T03:58:55.662Z,99.90
2018-10-12T04:01:23.982Z,99.90
2018-10-12T04:03:53.018Z,99.90
2018-10-12T04:06:21.346Z,99.90
2018-10-12T04:08:50.125Z,99.90
2018-10-12T04:11:18.921Z,99.90
2018-10-12T04:13:47.572Z,99.90
2018-10-12T04:16:16.242Z,99.90
2018-10-12T04:18:45.124Z,99.90
2018-10-12T04:21:13.483Z,99.90
2018-10-12T04:23:41.756Z,99.90
2018-10-12T04:26:10.258Z,99.90
2018-10-12T04:28:38.541Z,99.90
2018-10-12T04:31:06.901Z,99.90
2018-10-12T04:33:35.204Z,99.90
2018-10-12T04:36:03.960Z,99.90
2018-10-12T04:39:43.590Z,99.90
2018-10-12T04:42:12.438Z,99.90
2018-10-12T04:44:40.775Z,99.90
2018-10-12T04:47:09.429Z,99.90
2018-10-12T04:49:37.819Z,99.90
2018-10-12T04:52:06.413Z,99.90
2018-10-12T04:54:34.915Z,99.90
2018-10-12T04:57:03.400Z,99.90
2018-10-12T04:59:31.961Z,99.90
2018-10-12T05:02:01.289Z,99.90
2018-10-12T05:04:30.046Z,99.90
2018-10-12T05:06:58.727Z,99.90
2018-10-12T05:09:27.882Z,99.90
2018-10-12T05:11:56.238Z,99.90
2018-10-12T05:14:25.133Z,99.90
2018-10-12T05:16:54.043Z,99.90
2018-10-12T05:19:22.501Z,99.90
2018-10-12T05:21:50.867Z,99.90
2018-10-12T05:24:19.354Z,99.90
2018-10-12T05:26:48.336Z,99.90
2018-10-12T05:29:16.776Z,99.90
2018-10-12T05:31:46.620Z,99.90
2018-10-12T05:34:14.910Z,99.90
2018-10-12T05:36:43.231Z,99.90
2018-10-12T05:39:13.039Z,99.90
2018-10-12T05:41:41.546Z,99.90
2018-10-12T05:44:10.385Z,99.90
2018-10-12T05:46:38.969Z,99.90
2018-10-12T05:49:18.355Z,99.90
2018-10-12T05:51:46.742Z,99.90
2018-10-12T05:54:15.612Z,99.90
2018-10-12T05:56:44.823Z,99.90
2018-10-12T05:59:13.250Z,99.90
2018-10-12T06:01:41.675Z,99.90
2018-10-12T06:04:10.727Z,99.90
2018-10-12T06:06:39.010Z,99.90
2018-10-12T06:09:08.125Z,99.90
2018-10-12T06:11:36.421Z,99.90
2018-10-12T06:14:05.269Z,99.90
2018-10-12T06:16:34.112Z,99.90
2018-10-12T06:19:02.566Z,99.90
2018-10-12T06:21:30.935Z,99.90
2018-10-12T06:24:00.018Z,99.90
2018-10-12T06:26:28.340Z,99.90
2018-10-12T06:28:56.711Z,99.90
2018-10-12T06:31:25.002Z,99.90
2018-10-12T06:33:53.390Z,99.90
2018-10-12T06:36:22.550Z,99.90
2018-10-12T06:38:50.875Z,99.90
2018-10-12T06:41:19.219Z,99.90
2018-10-12T06:43:47.609Z,99.90
2018-10-12T06:46:16.031Z,99.90
2018-10-12T06:48:44.334Z,99.90
2018-10-12T06:51:12.631Z,99.90
2018-10-12T06:53:41.139Z,99.90
2018-10-12T06:56:09.431Z,99.90
2018-10-12T06:58:38.938Z,99.90
2018-10-12T07:01:08.167Z,99.90
2018-10-12T07:03:37.317Z,99.90
2018-10-12T07:06:05.660Z,99.90
2018-10-12T07:08:35.314Z,99.90
2018-10-12T07:11:03.814Z,99.90
2018-10-12T07:13:32.119Z,99.90
2018-10-12T07:16:01.063Z,99.90
2018-10-12T07:18:29.811Z,99.90
2018-10-12T07:20:59.649Z,99.90
2018-10-12T07:23:27.434Z,99.90
2018-10-12T07:25:55.750Z,99.90
2018-10-12T07:28:24.429Z,99.90
2018-10-12T07:30:52.905Z,99.90
2018-10-12T07:33:21.220Z,99.90
2018-10-12T07:35:50.017Z,99.90
2018-10-12T07:38:18.574Z,99.90
2018-10-12T07:40:47.054Z,99.90
2018-10-12T07:43:15.470Z,99.90
2018-10-12T07:45:44.431Z,99.90
2018-10-12T07:48:13.777Z,99.90
2018-10-12T07:50:42.030Z,99.90
2018-10-12T07:53:10.459Z,99.90
2018-10-12T07:55:38.898Z,99.90
2018-10-12T07:58:07.212Z,99.90
2018-10-12T08:00:35.647Z,99.90
2018-10-12T08:03:05.157Z,99.90
2018-10-12T08:05:33.503Z,99.90
2018-10-12T08:08:02.529Z,99.90
2018-10-12T08:10:30.828Z,99.60
2018-10-12T08:12:59.139Z,98.20
2018-10-12T08:15:27.943Z,97.90
2018-10-12T08:17:56.454Z,97.80
2018-10-12T08:20:24.803Z,97.30
2018-10-12T08:22:53.016Z,95.70
2018-10-12T08:25:21.350Z,96.20
2018-10-12T08:27:49.682Z,95.10
2018-10-12T08:30:18.068Z,94.30
2018-10-12T08:32:47.177Z,92.90
2018-10-12T08:35:15.498Z,92.90
2018-10-12T08:37:43.845Z,91.90
2018-10-12T08:40:12.134Z,91.50
2018-10-12T08:42:40.922Z,91.30
2018-10-12T08:45:09.422Z,91.50
2018-10-12T08:47:37.774Z,89.00
2018-10-12T08:50:06.608Z,88.00
2018-10-12T08:52:34.888Z,89.40
2018-10-12T08:55:03.323Z,88.70
2018-10-12T08:57:31.777Z,87.90
2018-10-12T09:00:00.660Z,89.50
2018-10-12T09:02:29.382Z,88.90
2018-10-12T09:04:58.192Z,85.80
2018-10-12T09:07:27.185Z,84.30
2018-10-12T09:09:55.651Z,85.30
2018-10-12T09:12:23.941Z,84.30
2018-10-12T09:14:52.801Z,83.20
2018-10-12T09:17:21.617Z,83.70
2018-10-12T09:19:50.650Z,82.70
2018-10-12T09:22:18.930Z,81.50
2018-10-12T09:24:47.239Z,81.90
2018-10-12T09:27:15.899Z,80.50
2018-10-12T09:29:44.138Z,79.70
2018-10-12T09:32:12.519Z,79.80
2018-10-12T09:34:40.987Z,81.50
2018-10-12T09:37:10.384Z,77.70
2018-10-12T09:39:38.328Z,78.30
2018-10-12T09:42:06.756Z,74.40
2018-10-12T09:44:35.023Z,71.50
2018-10-12T09:47:03.845Z,71.00
2018-10-12T09:49:32.133Z,71.90
2018-10-12T09:52:00.425Z,71.20
2018-10-12T09:54:28.914Z,72.80
2018-10-12T09:57:02.482Z,71.50
2018-10-12T09:59:30.892Z,69.80
2018-10-12T10:02:05.510Z,69.30
2018-10-12T10:04:34.780Z,69.30
2018-10-12T10:07:04.038Z,67.60
2018-10-12T10:09:33.009Z,66.20
2018-10-12T10:12:01.310Z,67.40
2018-10-12T10:14:29.905Z,66.90
2018-10-12T10:16:58.574Z,64.90
2018-10-12T10:19:27.486Z,66.60
2018-10-12T10:21:55.754Z,63.90
2018-10-12T10:24:24.739Z,64.60
2018-10-12T10:26:53.014Z,64.90
2018-10-12T10:29:21.348Z,62.40
2018-10-12T10:31:49.641Z,60.50
2018-10-12T10:34:17.939Z,63.70
2018-10-12T10:36:47.285Z,62.80
2018-10-12T10:39:15.959Z,62.30
2018-10-12T10:41:43.897Z,62.40
2018-10-12T10:44:12.350Z,63.90
2018-10-12T10:46:40.654Z,67.90
2018-10-12T10:49:09.003Z,66.60
2018-10-12T10:51:37.468Z,68.40
2018-10-12T10:54:05.881Z,67.10
2018-10-12T10:56:34.173Z,68.80
2018-10-12T10:59:02.607Z,68.90
2018-10-12T11:01:30.932Z,69.20
2018-10-12T11:03:59.668Z,68.00
2018-10-12T11:06:28.405Z,67.50
2018-10-12T11:08:57.061Z,68.80
2018-10-12T11:11:25.360Z,67.90
2018-10-12T11:13:53.654Z,68.90
2018-10-12T11:16:22.594Z,69.80
2018-10-12T11:18:51.194Z,70.90
2018-10-12T11:21:19.487Z,71.30
2018-10-12T11:23:48.187Z,70.30
2018-10-12T11:26:16.503Z,72.10
2018-10-12T11:28:44.734Z,72.60
2018-10-12T11:31:13.032Z,70.80
2018-10-12T11:33:41.325Z,72.60
2018-10-12T11:36:09.699Z,70.20
2018-10-12T11:38:38.162Z,69.20
2018-10-12T11:41:07.047Z,68.10
2018-10-12T11:43:36.776Z,70.10
2018-10-12T11:46:05.167Z,71.60
2018-10-12T11:48:33.575Z,68.60
2018-10-12T11:51:02.135Z,72.60
2018-10-12T11:53:30.522Z,72.50
2018-10-12T11:55:58.823Z,69.60
2018-10-12T11:58:27.146Z,70.60
2018-10-12T12:00:55.590Z,71.30
2018-10-12T12:03:24.448Z,71.10
2018-10-12T12:05:53.455Z,69.60
2018-10-12T12:08:22.710Z,71.70
2018-10-12T12:10:51.045Z,71.70
2018-10-12T12:13:19.417Z,71.10
2018-10-12T12:15:48.302Z,73.40
2018-10-12T12:18:17.169Z,72.30
2018-10-12T12:20:45.474Z,70.30
2018-10-12T12:23:13.755Z,70.30
2018-10-12T12:25:42.067Z,71.10
2018-10-12T12:28:10.350Z,72.60
2018-10-12T12:30:38.754Z,71.20
2018-10-12T12:33:07.102Z,72.00
2018-10-12T12:35:35.813Z,71.90
2018-10-12T12:38:03.726Z,72.70
2018-10-12T12:40:32.113Z,73.10
2018-10-12T12:43:00.486Z,72.40
2018-10-12T12:45:28.761Z,71.40
2018-10-12T12:47:57.175Z,71.60
2018-10-12T12:50:25.353Z,71.20
2018-10-12T12:52:54.248Z,70.90
2018-10-12T12:55:22.574Z,72.30
2018-10-12T12:57:50.863Z,70.90
2018-10-12T13:00:19.198Z,70.70
2018-10-12T13:02:47.899Z,71.40
2018-10-12T13:05:16.247Z,71.50
2018-10-12T13:07:46.050Z,70.60
2018-10-12T13:10:14.815Z,70.80
2018-10-12T13:12:43.118Z,70.70
2018-10-12T13:15:11.473Z,70.60
2018-10-12T13:17:40.186Z,70.60
2018-10-12T13:20:08.491Z,69.50
2018-10-12T13:22:36.777Z,69.70
2018-10-12T13:25:05.141Z,70.90
2018-10-12T13:27:33.400Z,71.40
2018-10-12T13:30:01.743Z,71.30
2018-10-12T13:32:30.081Z,71.10
2018-10-12T13:34:58.349Z,72.30
2018-10-12T13:37:26.989Z,70.10
2018-10-12T13:39:55.326Z,70.30
2018-10-12T13:42:23.549Z,71.20
2018-10-12T13:44:51.862Z,71.40
2018-10-12T13:47:20.151Z,71.00
2018-10-12T13:49:48.498Z,71.20
2018-10-12T13:52:16.797Z,71.40
2018-10-12T13:54:46.044Z,71.80
2018-10-12T13:57:14.820Z,71.40
2018-10-12T13:59:43.093Z,71.90
2018-10-12T14:02:11.969Z,73.00
2018-10-12T14:04:40.251Z,73.80
2018-10-12T14:07:09.571Z,73.20
2018-10-12T14:09:38.234Z,73.30
2018-10-12T14:12:06.539Z,74.20
2018-10-12T14:14:34.840Z,75.30
2018-10-12T14:17:03.550Z,75.20
2018-10-12T14:19:31.893Z,73.90
2018-10-12T14:22:00.114Z,75.40
2018-10-12T14:24:28.405Z,77.10
2018-10-12T14:26:56.651Z,77.60
2018-10-12T14:29:25.282Z,77.10
2018-10-12T14:31:53.558Z,76.40
2018-10-12T14:34:22.474Z,77.60
2018-10-12T14:36:50.826Z,77.90
2018-10-12T14:39:19.084Z,77.20
2018-10-12T14:41:48.151Z,78.10
2018-10-12T14:44:16.636Z,79.20
2018-10-12T14:46:45.741Z,79.40
2018-10-12T14:49:14.016Z,78.50
2018-10-12T14:51:42.394Z,80.40
2018-10-12T14:54:11.321Z,81.30
2018-10-12T14:56:39.653Z,80.20
2018-10-12T14:59:08.039Z,82.00
2018-10-12T15:01:36.301Z,81.40
2018-10-12T15:04:05.086Z,81.90
2018-10-12T15:07:04.096Z,81.50
2018-10-12T15:09:33.806Z,81.80
2018-10-12T15:12:02.096Z,82.10
2018-10-12T15:14:41.818Z,82.10
2018-10-12T15:17:10.582Z,82.30
2018-10-12T15:19:39.163Z,82.20
2018-10-12T15:22:08.021Z,82.70
2018-10-12T15:24:36.419Z,82.70
2018-10-12T15:27:04.726Z,82.80
2018-10-12T15:29:33.043Z,83.70
2018-10-12T15:32:01.656Z,84.70
2018-10-12T15:34:29.933Z,84.90
2018-10-12T15:36:58.301Z,86.80
2018-10-12T15:39:27.723Z,86.30
2018-10-12T15:41:56.122Z,88.40
2018-10-12T15:44:24.856Z,89.60
2018-10-12T15:46:53.166Z,90.00
2018-10-12T15:49:21.470Z,90.40
2018-10-12T15:51:49.818Z,90.30
2018-10-12T15:54:18.141Z,90.80
2018-10-12T15:56:46.420Z,91.10
2018-10-12T15:59:14.781Z,91.50
2018-10-12T16:01:43.121Z,91.50
2018-10-12T16:04:12.192Z,91.40
2018-10-12T16:06:40.517Z,91.60
2018-10-12T16:09:09.434Z,91.90
2018-10-12T16:11:37.874Z,92.80
2018-10-12T16:14:06.184Z,92.60
2018-10-12T16:16:35.001Z,93.10
2018-10-12T16:19:03.783Z,93.30
2018-10-12T16:21:32.342Z,93.10
2018-10-12T16:24:11.819Z,94.40
2018-10-12T16:26:40.191Z,94.40
2018-10-12T16:29:08.555Z,93.90
2018-10-12T16:31:36.878Z,94.20
2018-10-12T16:34:05.205Z,94.50
2018-10-12T16:36:33.971Z,94.50
2018-10-12T16:39:02.530Z,94.50
2018-10-12T16:41:30.818Z,95.20
2018-10-12T16:43:59.122Z,96.60
2018-10-12T16:46:27.459Z,96.10
2018-10-12T16:48:55.837Z,96.50
2018-10-12T16:51:24.128Z,96.30
2018-10-12T16:53:52.430Z,96.20
2018-10-12T16:56:20.694Z,97.20
2018-10-12T16:58:48.993Z,97.80
2018-10-12T17:01:17.298Z,98.00
2018-10-12T17:03:46.022Z,97.80
2018-10-12T17:06:14.344Z,98.10
2018-10-12T17:08:43.158Z,98.30
2018-10-12T17:11:11.463Z,98.80
2018-10-12T17:13:39.734Z,99.10
2018-10-12T17:16:08.374Z,99.60
2018-10-12T17:18:37.087Z,99.30
2018-10-12T17:21:05.538Z,99.90
2018-10-12T17:23:33.883Z,99.90
2018-10-12T17:26:02.165Z,99.90
2018-10-12T17:28:30.426Z,99.90
2018-10-12T17:30:58.917Z,99.90
2018-10-12T17:33:27.186Z,99.90
2018-10-12T17:35:55.653Z,99.90
2018-10-12T17:38:23.910Z,99.90
2018-10-12T17:40:52.490Z,99.90
2018-10-12T17:43:20.787Z,99.90
2018-10-12T17:45:49.092Z,99.90
2018-10-12T17:48:17.423Z,99.90
2018-10-12T17:50:45.740Z,99.90
2018-10-12T17:53:14.380Z,99.90
2018-10-12T17:55:42.678Z,99.90
2018-10-12T17:58:11.250Z,99.90
2018-10-12T18:00:39.537Z,99.90
2018-10-12T18:03:08.165Z,99.90
2018-10-12T18:05:36.447Z,99.90
2018-10-12T18:08:05.338Z,99.90
2018-10-12T18:10:33.626Z,99.90
2018-10-12T18:13:01.886Z,99.90
2018-10-12T18:15:30.778Z,99.90
2018-10-12T18:17:59.519Z,99.90
2018-10-12T18:20:27.799Z,99.90
2018-10-12T18:25:21.526Z,99.90
2018-10-12T18:27:50.108Z,99.90
2018-10-12T18:30:18.851Z,99.90
2018-10-12T18:32:47.493Z,99.90
2018-10-12T18:35:16.154Z,99.90
2018-10-12T18:37:44.452Z,99.90
2018-10-12T18:40:13.262Z,99.90
2018-10-12T18:42:41.582Z,99.90
2018-10-12T18:45:10.307Z,99.90
2018-10-12T18:47:38.692Z,99.90
2018-10-12T18:50:07.979Z,99.90
2018-10-12T18:52:36.297Z,99.90
2018-10-12T18:55:04.613Z,99.90
2018-10-12T18:57:34.890Z,99.90
2018-10-12T19:00:04.851Z,99.90
2018-10-12T19:02:34.976Z,99.90
2018-10-12T19:05:03.508Z,99.90
2018-10-12T19:07:32.066Z,99.90
2018-10-12T19:10:00.372Z,99.90
2018-10-12T19:12:28.750Z,99.90
2018-10-12T19:14:57.199Z,99.90
2018-10-12T19:17:26.238Z,99.90
2018-10-12T19:19:54.622Z,99.90
2018-10-12T19:22:23.339Z,99.90
2018-10-12T19:24:51.769Z,99.90
2018-10-12T19:27:20.086Z,99.90
2018-10-12T19:29:48.428Z,99.90
2018-10-12T19:32:17.050Z,99.90
2018-10-12T19:34:45.741Z,99.90
2018-10-12T19:37:14.283Z,99.90
2018-10-12T19:39:43.093Z,99.90
2018-10-12T19:42:11.407Z,99.90
2018-10-12T19:47:08.015Z,99.90
2018-10-12T19:49:36.291Z,99.90
2018-10-12T19:53:29.027Z,99.90
2018-10-12T19:55:57.403Z,99.90
2018-10-12T19:58:25.698Z,99.90
2018-10-12T20:00:54.160Z,99.90
2018-10-12T20:03:22.796Z,99.90
2018-10-12T20:05:51.070Z,99.90
2018-10-12T20:08:19.642Z,99.90
2018-10-12T20:10:48.004Z,99.90
2018-10-12T20:13:17.346Z,99.90
2018-10-12T20:15:46.135Z,99.90
2018-10-12T20:18:14.691Z,99.90
2018-10-12T20:20:43.335Z,99.90
2018-10-12T20:23:11.609Z,99.90
2018-10-12T20:25:39.890Z,99.90
2018-10-12T20:28:08.289Z,99.90
2018-10-12T20:30:36.550Z,99.90
2018-10-12T20:33:04.998Z,99.90
2018-10-12T20:35:33.962Z,99.90
2018-10-12T20:38:02.238Z,99.90
2018-10-12T20:40:30.958Z,99.90
2018-10-12T20:42:59.375Z,99.90
2018-10-12T20:45:27.684Z,99.90
2018-10-12T20:47:56.132Z,99.90
2018-10-12T20:50:24.420Z,99.90
2018-10-12T20:52:52.740Z,99.90
2018-10-12T20:55:21.030Z,99.90
2018-10-12T20:57:50.099Z,99.90
2018-10-12T21:00:19.134Z,99.90
2018-10-12T21:02:47.926Z,99.90
2018-10-12T21:05:16.850Z,99.90
2018-10-12T21:07:45.901Z,99.90
2018-10-12T21:10:14.220Z,99.90
2018-10-12T21:12:42.471Z,99.90
2018-10-12T21:15:11.171Z,99.90
2018-10-12T21:17:39.768Z,99.90
2018-10-12T21:20:08.406Z,99.90
2018-10-12T21:22:37.248Z,99.90
2018-10-12T21:25:05.517Z,99.90
2018-10-12T21:27:33.741Z,99.90
2018-10-12T21:30:02.490Z,99.90
2018-10-12T21:32:30.758Z,99.90
2018-10-12T21:34:59.325Z,99.90
2018-10-12T21:37:27.846Z,99.90
2018-10-12T21:39:56.411Z,99.90
2018-10-12T21:42:24.692Z,99.90
2018-10-12T21:44:52.974Z,99.90
2018-10-12T21:47:21.286Z,99.90
2018-10-12T21:49:49.575Z,99.90
2018-10-12T21:52:17.913Z,99.90
2018-10-12T21:54:46.218Z,99.90
2018-10-12T21:57:14.507Z,99.90
2018-10-12T21:59:43.121Z,99.90
2018-10-12T22:02:13.098Z,99.90
2018-10-12T22:04:41.369Z,99.90
2018-10-12T22:07:10.316Z,99.90
2018-10-12T22:09:38.615Z,99.90
2018-10-12T22:12:07.538Z,99.90
2018-10-12T22:14:35.825Z,99.90
2018-10-12T22:17:04.454Z,99.90
2018-10-12T22:19:32.728Z,99.90
2018-10-12T22:22:01.626Z,99.90
2018-10-12T22:24:29.924Z,99.90
2018-10-12T22:26:58.213Z,99.90
2018-10-12T22:29:26.481Z,99.90
2018-10-12T22:31:54.740Z,99.90
2018-10-12T22:34:23.372Z,99.90
2018-10-12T22:36:52.027Z,99.90
2018-10-12T22:39:20.528Z,99.90
2018-10-12T22:41:48.852Z,99.90
2018-10-12T22:44:17.155Z,99.90
2018-10-12T22:46:45.575Z,99.90
2018-10-12T22:49:13.867Z,99.90
2018-10-12T22:51:42.209Z,99.90
2018-10-12T22:54:10.494Z,99.90
2018-10-12T22:56:39.118Z,99.90
2018-10-12T22:59:07.601Z,99.90
2018-10-12T23:01:35.857Z,99.90
2018-10-12T23:04:04.301Z,99.90
2018-10-12T23:06:32.574Z,99.90
2018-10-12T23:09:01.316Z,99.90
2018-10-12T23:11:30.080Z,99.90
2018-10-12T23:16:57.542Z,99.90
2018-10-12T23:19:25.801Z,99.90
2018-10-12T23:21:54.079Z,99.90
2018-10-12T23:24:22.841Z,99.90
2018-10-12T23:26:51.125Z,99.90
2018-10-12T23:29:19.400Z,99.90
2018-10-12T23:31:47.652Z,99.90
2018-10-12T23:34:15.949Z,99.90
2018-10-12T23:36:44.433Z,99.90
2018-10-12T23:39:13.202Z,99.90
2018-10-12T23:41:41.709Z,99.90
2018-10-12T23:44:09.997Z,99.90
2018-10-12T23:46:38.326Z,99.90
2018-10-12T23:49:06.619Z,99.90
2018-10-12T23:51:34.906Z,99.90
2018-10-12T23:54:03.294Z,99.90
2018-10-12T23:56:32.327Z,99.90
2018-10-12T23:59:00.830Z,99.90
